Oglethorpe, GA

6:30 AM EDT on July 10, 2014 (GMT -0400)
Souther (KACJ) Elev 469 ft | 32.11 °N, 84.19 °W | Change Station

Current weather conditions updated 15 minutes ago

Clear
Clear
70 °F
Feels Like 70 °F
N
0
Wind Variable Wind from North

Today is forecast to be Cooler than yesterday. Afternoon showers and thunderstorms.

Today
High -- | Low -- °F
--% Chance of Precip.
Yesterday
High -- | Low -- °F
Precip. -- in
6:37 AM 8:45 PM
Waxing Gibbous, 94% visible
Pressure 30.08 in
Visibility 10.0 miles
Clouds Clear
Dew Point 70 °F
Humidity 100%
Rainfall 0.00 in
Snow Depth Not available.
UV 0 out of 12
Pollen 3.40 out of 12
Air Quality Not available.
Flu Activity Sporadic
METAR KACJ 101015Z AUTO 00000KT 10SM CLR 21/21 A3008 RMK AO2

More Conditions Fewer Conditions

Pressure 30.08 in
Visibility 10.0 miles
Clouds Clear
Dew Point 70 °F
Humidity 100%
Rainfall 0.00 in
Snow Depth Not available.
UV 0 out of 12
Pollen 3.40 out of 12
Air Quality Not available.
Flu Activity Sporadic
METAR KACJ 101015Z AUTO 00000KT 10SM CLR 21/21 A3008 RMK AO2

More Conditions Fewer Conditions

10-Day Weather Forecast

Almanac

Astronomy

Jul. 10, 2014 Rise Set
Actual Time 6:37 AM EDT 8:45 PM EDT
Civil Twilight 6:09 AM EDT 9:13 PM EDT
Nautical Twilight 5:35 AM EDT 9:47 PM EDT
Astronomical Twilight 4:58 AM EDT 10:24 PM EDT
Moon 7:00 PM EDT 4:44 AM EDT
Length of Visible Light 15h 04m
Length of Day
14h 08m
Tomorrow will be 0m 49s shorter.
Waxing Gibbous, 94% of the Moon is Illuminated
Today
Waxing Gibbous
Jul 12
Full
Jul 18
Last Quarter
Jul 26
New
Aug 3
First Quarter

Today's Extremes

State Highs State Lows

Community

WunderPhotos

Upload Photos

1,732,088 photos uploaded!

Nearby

Snow Depth

Station Depth Elevation
No new snow has been reported.

Earthquake Activity

City Distance Mag. Time & Date
No recent earthquake activity has been reported nearby.
Minimum magnitude displayed is 2.5.

Coastal Water Temperatures

Place Temperature
No Stations Reporting

Nearby Weather Stations

Station Location Temp. Dew Point Humidity Wind Precip. Elev Updated Type
RAWS BYROMVILLE GA, Byromville, GA 70 °F 68 °F 94% ESE  at  1 mph 0.00 in / hr 321 ft 5:05 AM EDT MADIS
RAWS AMERICUS/PLAINS GA, Americus, GA 71 °F 69 °F 94% South  at  2 mph 0.00 in / hr 456 ft 5:03 AM EDT MADIS
Potterville, Reynolds, GA 69.3 °F 69 °F 98% NNW  at  0.0 mph 0.00 in / hr 420 ft 6:24 AM EDT Normal
Reynolds, GA 69.2 °F 67 °F 93% South  at  0.0 mph - / hr 429 ft 6:28 AM EDT Normal
WA4RG, Fort Valley, GA 69.6 °F 69 °F 98% WNW  at  0.0 mph 0.00 in / hr 538 ft 6:29 AM EDT Rapid Fire
Cobb, Cobb, GA 71.9 °F 70 °F 93% West  at  0.0 mph 0.00 in / hr 285 ft 6:27 AM EDT Normal

Show More Stations Show Fewer Stations